Time;durP1;ratioP1;P1;durP2;ratioP2;P2;SDS_P1;SDS_P2;PMS_P1;PMS_P2;Temp;Humidity;BMP_temperature;BMP_pressure;BME280_temperature;BME280_humidity;BME280_pressure;Samples;Min_cycle;Max_cycle;Signal;HPM_P1;HPM_P2
2023/01/22 00:01:07;;;;;;;30.30;28.63;;;;;;;0.52;100.00;103479.13;4992680;28;20488;-44
2023/01/22 00:03:35;;;;;;;31.03;28.97;;;;;;;0.51;100.00;103480.03;4992673;28;20465;-47
2023/01/22 00:06:03;;;;;;;29.93;28.33;;;;;;;0.52;100.00;103463.38;4992029;28;20528;-46
2023/01/22 00:08:31;;;;;;;31.13;29.33;;;;;;;0.56;100.00;103466.72;4992787;28;20803;-46
2023/01/22 00:10:58;;;;;;;31.17;29.60;;;;;;;0.57;100.00;103470.22;4992674;28;20867;-48
2023/01/22 00:13:27;;;;;;;30.83;29.27;;;;;;;0.59;100.00;103473.59;4992693;28;20437;-44
2023/01/22 00:15:59;;;;;;;28.77;27.40;;;;;;;0.61;100.00;103462.13;4992291;28;20430;-46
2023/01/22 00:18:27;;;;;;;28.67;27.40;;;;;;;0.60;100.00;103472.69;4992173;28;20481;-47
2023/01/22 00:20:55;;;;;;;30.07;28.47;;;;;;;0.57;100.00;103467.59;4992705;28;20434;-44
2023/01/22 00:23:23;;;;;;;28.93;27.33;;;;;;;0.59;100.00;103463.97;4992711;28;20442;-47
2023/01/22 00:25:51;;;;;;;28.50;27.30;;;;;;;0.61;100.00;103472.63;4992345;28;20855;-45
2023/01/22 00:28:18;;;;;;;27.57;26.07;;;;;;;0.57;100.00;103441.31;4991966;28;20532;-47
2023/01/22 00:30:46;;;;;;;27.53;26.23;;;;;;;0.57;100.00;103458.75;4992259;28;20441;-45
2023/01/22 00:33:15;;;;;;;26.70;25.50;;;;;;;0.55;100.00;103457.13;4992597;28;20526;-47
2023/01/22 00:35:42;;;;;;;28.33;26.83;;;;;;;0.55;100.00;103470.25;4992286;28;20462;-43
2023/01/22 00:38:10;;;;;;;28.70;27.40;;;;;;;0.61;100.00;103446.38;4991585;28;20480;-46
2023/01/22 00:40:38;;;;;;;28.60;27.30;;;;;;;0.60;100.00;103438.56;4995367;28;20434;-47
2023/01/22 00:43:05;;;;;;;27.43;26.17;;;;;;;0.55;100.00;103452.72;4996288;28;20434;-44
2023/01/22 00:45:33;;;;;;;27.97;26.77;;;;;;;0.59;100.00;103461.34;4996233;28;20429;-44
2023/01/22 00:48:01;;;;;;;27.70;26.60;;;;;;;0.57;100.00;103449.19;4995724;28;20493;-44
2023/01/22 00:50:30;;;;;;;29.10;27.60;;;;;;;0.59;100.00;103450.84;4996358;28;20425;-46
2023/01/22 00:52:58;;;;;;;30.07;28.57;;;;;;;0.59;100.00;103442.09;4996156;28;20981;-44
2023/01/22 00:55:25;;;;;;;29.57;28.37;;;;;;;0.59;100.00;103442.09;4995197;28;20480;-45
2023/01/22 00:57:53;;;;;;;30.23;28.53;;;;;;;0.63;100.00;103443.69;4995388;28;20871;-46
2023/01/22 01:00:21;;;;;;;30.33;28.87;;;;;;;0.65;100.00;103434.81;4996000;28;20437;-48
2023/01/22 01:05:35;;;;;;;29.10;27.80;;;;;;;0.63;100.00;103439.25;4995827;28;20430;-47
2023/01/22 01:08:03;;;;;;;28.60;27.40;;;;;;;0.65;100.00;103442.69;4995336;28;20466;-45
2023/01/22 01:10:31;;;;;;;28.80;27.40;;;;;;;0.62;100.00;103437.56;4995910;28;20508;-44
2023/01/22 01:12:58;;;;;;;29.17;27.80;;;;;;;0.61;100.00;103440.25;4995939;28;20437;-49
2023/01/22 01:15:26;;;;;;;29.63;28.07;;;;;;;0.66;100.00;103441.75;4995633;28;20434;-44
2023/01/22 01:17:54;;;;;;;29.70;28.30;;;;;;;0.66;100.00;103444.38;4995119;28;20572;-47
2023/01/22 01:20:22;;;;;;;28.53;27.33;;;;;;;0.65;100.00;103436.59;4995728;28;20807;-49
2023/01/22 01:22:51;;;;;;;27.57;26.33;;;;;;;0.61;100.00;103440.25;4995606;28;20565;-43
2023/01/22 01:25:18;;;;;;;28.90;27.47;;;;;;;0.61;100.00;103441.09;4995627;28;20429;-46
2023/01/22 01:27:46;;;;;;;28.13;26.80;;;;;;;0.58;100.00;103443.88;4995169;28;20468;-46
2023/01/22 01:30:14;;;;;;;28.33;26.97;;;;;;;0.57;100.00;103443.00;4995551;28;20429;-44
2023/01/22 01:32:42;;;;;;;27.10;26.00;;;;;;;0.47;100.00;103448.75;4995514;28;20437;-45
2023/01/22 01:35:10;;;;;;;27.73;26.13;;;;;;;0.38;100.00;103444.75;4995178;28;20950;-45
2023/01/22 01:37:38;;;;;;;30.47;28.60;;;;;;;0.32;100.00;103444.13;4994822;28;20557;-46
2023/01/22 01:40:09;;;;;;;29.37;28.10;;;;;;;0.32;100.00;103436.25;4995377;28;20434;-46
2023/01/22 01:42:40;;;;;;;28.50;26.80;;;;;;;0.30;100.00;103441.56;4995261;28;20430;-44
2023/01/22 01:45:22;;;;;;;27.27;25.90;;;;;;;0.36;100.00;103446.56;4995017;28;20432;-49
2023/01/22 01:47:54;;;;;;;28.00;26.77;;;;;;;0.33;100.00;103436.19;4994538;28;20507;-45
2023/01/22 01:50:25;;;;;;;27.83;26.53;;;;;;;0.32;100.00;103433.63;4994906;28;20449;-47
2023/01/22 01:52:53;;;;;;;28.40;27.00;;;;;;;0.27;100.00;103425.94;4995784;28;20461;-44
2023/01/22 01:55:27;;;;;;;28.50;27.20;;;;;;;0.26;100.00;103416.38;4994610;28;20441;-44
2023/01/22 01:58:00;;;;;;;28.07;26.70;;;;;;;0.24;100.00;103420.81;4994385;28;20466;-44
2023/01/22 02:00:32;;;;;;;27.40;26.10;;;;;;;0.17;100.00;103429.03;4995200;28;20418;-50
2023/01/22 02:03:00;;;;;;;29.20;27.90;;;;;;;0.23;100.00;103434.03;4994857;28;20932;-45
2023/01/22 02:05:35;;;;;;;28.87;27.67;;;;;;;0.23;100.00;103427.00;4994557;28;20469;-47
2023/01/22 02:08:03;;;;;;;28.70;27.30;;;;;;;0.24;100.00;103423.44;4994296;28;20472;-44
2023/01/22 02:10:32;;;;;;;28.37;27.07;;;;;;;0.24;100.00;103428.69;4994613;28;20457;-46
2023/01/22 02:13:05;;;;;;;26.93;25.80;;;;;;;0.18;100.00;103430.75;4994904;28;20813;-49
2023/01/22 02:15:33;;;;;;;29.27;27.83;;;;;;;0.18;100.00;103423.72;4994427;28;20433;-47
2023/01/22 02:18:00;;;;;;;28.40;27.10;;;;;;;0.13;100.00;103433.56;4994102;28;20474;-46
2023/01/22 02:20:28;;;;;;;28.17;26.97;;;;;;;0.12;100.00;103431.84;4994763;28;20430;-46
2023/01/22 02:22:57;;;;;;;28.80;27.37;;;;;;;0.06;100.00;103439.13;4994509;28;20433;-46
2023/01/22 02:25:25;;;;;;;28.87;27.57;;;;;;;0.13;100.00;103453.69;4994234;28;20528;-49
2023/01/22 02:27:53;;;;;;;29.03;27.50;;;;;;;0.15;100.00;103446.63;4993998;28;20545;-48
2023/01/22 02:30:20;;;;;;;29.10;27.80;;;;;;;0.14;100.00;103440.50;4994576;28;20438;-49
2023/01/22 02:32:48;;;;;;;27.77;26.47;;;;;;;0.10;100.00;103451.19;4994475;28;20492;-44
2023/01/22 02:35:16;;;;;;;28.90;27.50;;;;;;;0.05;100.00;103446.16;4994142;28;20437;-45
2023/01/22 02:37:44;;;;;;;28.67;27.47;;;;;;;0.11;100.00;103463.41;4993525;28;20478;-46
2023/01/22 02:40:13;;;;;;;27.17;25.97;;;;;;;0.03;100.00;103457.63;4994460;28;20438;-46
2023/01/22 02:42:41;;;;;;;28.03;26.73;;;;;;;0.02;100.00;103441.03;4994258;28;20441;-45
2023/01/22 02:45:10;;;;;;;28.80;27.40;;;;;;;0.06;100.00;103449.63;4993893;28;21057;-45
2023/01/22 02:47:38;;;;;;;28.00;26.80;;;;;;;0.04;100.00;103439.19;4993647;28;21009;-44
2023/01/22 02:50:06;;;;;;;29.53;28.03;;;;;;;0.08;100.00;103453.88;4993857;28;20426;-44
2023/01/22 02:52:34;;;;;;;28.57;27.37;;;;;;;0.06;100.00;103457.50;4993935;28;20932;-43
2023/01/22 02:55:02;;;;;;;27.30;26.13;;;;;;;0.05;100.00;103455.78;4993955;28;20436;-45
2023/01/22 02:57:31;;;;;;;27.80;26.70;;;;;;;0.07;100.00;103446.06;4993563;28;20493;-47
2023/01/22 02:59:59;;;;;;;28.37;26.90;;;;;;;0.09;100.00;103446.88;4993864;28;20485;-46
2023/01/22 03:02:27;;;;;;;29.27;27.87;;;;;;;0.06;100.00;103442.59;4993589;28;20477;-47
2023/01/22 03:05:02;;;;;;;29.80;28.20;;;;;;;0.09;100.00;103452.94;4993438;28;20434;-44
2023/01/22 03:07:40;;;;;;;28.37;27.00;;;;;;;0.13;100.00;103451.91;4993347;28;20473;-48
2023/01/22 03:10:12;;;;;;;28.27;26.97;;;;;;;0.07;100.00;103438.19;4993672;28;20855;-44
2023/01/22 03:21:17;;;;;;;28.23;27.13;;;;;;;0.04;100.00;103454.91;4993429;28;20950;-45
2023/01/22 03:23:47;;;;;;;28.00;26.43;;;;;;;0.04;100.00;103461.94;4993289;28;20433;-48
2023/01/22 03:26:15;;;;;;;30.53;29.13;;;;;;;0.03;100.00;103470.75;4992781;28;20430;-44
2023/01/22 03:28:45;;;;;;;28.30;27.00;;;;;;;0.08;100.00;103458.28;4993510;28;20430;-44
2023/01/22 03:31:13;;;;;;;28.40;27.00;;;;;;;0.07;100.00;103469.69;4993371;28;20524;-48
2023/01/22 03:33:42;;;;;;;28.80;27.60;;;;;;;0.04;100.00;103459.31;4993113;28;21006;-44
2023/01/22 03:36:13;;;;;;;29.10;27.70;;;;;;;0.02;100.00;103462.00;4992279;28;20796;-44
2023/01/22 03:38:40;;;;;;;27.87;26.53;;;;;;;0.02;100.00;103454.13;4992853;28;20477;-45
2023/01/22 03:41:11;;;;;;;29.53;28.23;;;;;;;0.06;100.00;103454.88;4993033;28;20434;-46
2023/01/22 03:43:39;;;;;;;29.83;28.43;;;;;;;0.02;100.00;103454.13;4992937;28;20951;-47
2023/01/22 03:46:11;;;;;;;28.83;27.20;;;;;;;0.02;100.00;103461.16;4992266;28;20434;-44
2023/01/22 03:48:40;;;;;;;30.03;28.53;;;;;;;0.07;100.00;103467.91;4993040;28;20426;-44
2023/01/22 03:51:09;;;;;;;29.73;28.20;;;;;;;0.03;100.00;103461.06;4993111;28;20465;-46
2023/01/22 03:53:37;;;;;;;28.70;27.30;;;;;;;0.06;100.00;103445.19;4992917;28;20466;-44
2023/01/22 03:56:07;;;;;;;29.30;27.97;;;;;;;0.02;100.00;103455.91;4992049;28;20430;-45
2023/01/22 03:58:35;;;;;;;29.67;28.17;;;;;;;0.02;100.00;103462.00;4992795;28;20983;-46
2023/01/22 04:01:04;;;;;;;28.97;27.57;;;;;;;0.07;100.00;103460.03;4992693;28;20437;-47
2023/01/22 04:03:34;;;;;;;29.93;27.97;;;;;;;0.12;100.00;103478.22;4993094;28;20430;-47
2023/01/22 04:06:02;;;;;;;29.20;27.80;;;;;;;0.06;100.00;103458.31;4992159;28;20944;-44
2023/01/22 04:08:32;;;;;;;28.30;27.00;;;;;;;0.08;100.00;103460.91;4992749;28;20996;-44
2023/01/22 04:11:01;;;;;;;30.77;29.20;;;;;;;0.13;100.00;103446.66;4992514;28;20445;-45
2023/01/22 04:13:31;;;;;;;29.47;27.93;;;;;;;0.11;100.00;103452.91;4992292;28;20440;-47
2023/01/22 04:15:59;;;;;;;28.80;27.40;;;;;;;0.14;100.00;103443.13;4992451;28;20433;-45
2023/01/22 04:18:28;;;;;;;29.00;27.40;;;;;;;0.08;100.00;103450.41;4991953;28;20464;-44
2023/01/22 04:20:57;;;;;;;29.47;27.97;;;;;;;0.07;100.00;103439.06;4992367;28;20450;-47
2023/01/22 04:23:25;;;;;;;28.30;26.90;;;;;;;0.15;100.00;103452.69;4992547;28;20441;-46
2023/01/22 04:25:53;;;;;;;28.27;26.80;;;;;;;0.11;100.00;103451.13;4992248;28;20448;-44
2023/01/22 04:28:21;;;;;;;27.60;26.30;;;;;;;0.09;100.00;103449.50;4991798;28;20976;-46
2023/01/22 04:30:52;;;;;;;28.57;27.20;;;;;;;0.08;100.00;103446.03;4992394;28;20938;-47
2023/01/22 04:33:21;;;;;;;29.77;28.23;;;;;;;0.09;100.00;103442.47;4992517;28;20426;-50
2023/01/22 04:35:50;;;;;;;28.37;27.00;;;;;;;0.08;100.00;103445.16;4992474;28;20433;-44
2023/01/22 04:38:19;;;;;;;29.40;28.00;;;;;;;0.09;100.00;103442.47;4991534;28;20461;-45
2023/01/22 04:40:47;;;;;;;29.67;28.10;;;;;;;0.12;100.00;103437.09;4983967;28;20492;-45
2023/01/22 04:43:14;;;;;;;28.43;27.13;;;;;;;0.14;100.00;103443.13;4992291;28;20457;-47
2023/01/22 04:45:42;;;;;;;29.20;27.80;;;;;;;0.13;100.00;103443.19;4992039;28;20990;-45
2023/01/22 04:48:11;;;;;;;29.40;27.97;;;;;;;0.09;100.00;103455.56;4991771;28;20519;-48
2023/01/22 04:50:39;;;;;;;28.40;27.10;;;;;;;0.13;100.00;103458.94;4992336;28;20425;-45
2023/01/22 04:53:06;;;;;;;30.60;28.90;;;;;;;0.07;100.00;103452.16;4992200;28;20437;-48
2023/01/22 04:55:35;;;;;;;30.10;28.60;;;;;;;0.12;100.00;103454.63;4991855;28;20473;-44
2023/01/22 04:58:03;;;;;;;30.50;29.00;;;;;;;0.13;100.00;103461.56;4991797;28;20518;-49
2023/01/22 05:00:31;;;;;;;29.80;28.40;;;;;;;0.12;100.00;103457.25;4992235;28;20473;-45
2023/01/22 05:03:00;;;;;;;30.33;28.93;;;;;;;0.09;100.00;103452.13;4992140;28;20434;-46
2023/01/22 05:05:29;;;;;;;30.47;28.97;;;;;;;0.11;100.00;103458.16;4991918;28;20557;-48
2023/01/22 05:07:57;;;;;;;31.20;29.67;;;;;;;0.12;100.00;103455.44;4991577;28;20481;-43
2023/01/22 05:10:24;;;;;;;29.30;27.83;;;;;;;0.08;100.00;103453.88;4991833;28;20444;-44
2023/01/22 05:12:53;;;;;;;31.50;30.00;;;;;;;0.05;100.00;103437.41;4992185;28;20509;-44
2023/01/22 05:15:21;;;;;;;28.90;27.60;;;;;;;0.09;100.00;103452.94;4991851;28;20457;-46
2023/01/22 05:17:52;;;;;;;30.67;29.00;;;;;;;0.07;100.00;103439.06;4991627;28;20840;-44
2023/01/22 05:20:20;;;;;;;39.37;36.80;;;;;;;0.10;100.00;103430.19;4991860;28;20469;-43
2023/01/22 05:22:48;;;;;;;30.63;29.13;;;;;;;0.11;100.00;103434.53;4992052;28;20470;-46
2023/01/22 05:25:16;;;;;;;31.23;29.63;;;;;;;0.08;100.00;103434.66;4992411;28;20853;-44
2023/01/22 05:27:44;;;;;;;30.87;29.03;;;;;;;0.06;100.00;103442.59;4995249;28;20480;-47
2023/01/22 05:30:13;;;;;;;31.03;29.53;;;;;;;0.07;100.00;103436.44;4995626;28;20793;-46
2023/01/22 05:32:41;;;;;;;30.57;29.07;;;;;;;0.01;100.00;103439.31;4995487;28;20812;-47
2023/01/22 05:35:09;;;;;;;31.53;30.03;;;;;;;0.00;100.00;103435.81;4995451;28;21145;-44
2023/01/22 05:37:37;;;;;;;31.40;29.80;;;;;;;0.06;100.00;103437.34;4994925;28;20469;-44
2023/01/22 05:40:06;;;;;;;31.73;30.03;;;;;;;0.07;100.00;103449.53;4995288;28;20470;-46
2023/01/22 05:42:34;;;;;;;32.53;30.43;;;;;;;0.06;100.00;103442.59;4994032;28;20445;-44
2023/01/22 05:45:01;;;;;;;30.47;28.97;;;;;;;0.02;100.00;103445.41;4995031;28;20438;-45
2023/01/22 05:47:30;;;;;;;31.90;30.27;;;;;;;0.04;100.00;103446.19;4994563;28;20473;-46
2023/01/22 05:49:58;;;;;;;32.70;31.00;;;;;;;0.03;100.00;103440.09;4993005;28;20430;-46
2023/01/22 05:52:26;;;;;;;30.20;28.80;;;;;;;0.03;100.00;103442.72;4970342;28;20536;-46
2023/01/22 05:54:53;;;;;;;30.37;28.87;;;;;;;0.08;100.00;103447.78;4994848;28;20430;-45
2023/01/22 05:57:21;;;;;;;30.67;28.60;;;;;;;0.05;100.00;103443.53;4994276;28;20465;-44
2023/01/22 05:59:49;;;;;;;30.03;28.33;;;;;;;0.10;100.00;103454.66;4994722;28;21013;-45
2023/01/22 06:02:17;;;;;;;30.03;28.50;;;;;;;0.05;100.00;103448.78;4994529;28;20469;-44
2023/01/22 06:04:46;;;;;;;28.23;26.73;;;;;;;0.07;100.00;103446.06;4993791;28;20472;-44
2023/01/22 06:07:14;;;;;;;29.13;27.60;;;;;;;0.09;100.00;103454.75;4994549;28;20458;-47
2023/01/22 06:09:41;;;;;;;29.20;27.80;;;;;;;0.12;100.00;103442.34;4994129;28;20441;-50
2023/01/22 06:12:09;;;;;;;30.70;29.20;;;;;;;0.14;100.00;103445.75;4994140;28;20437;-46
2023/01/22 06:14:37;;;;;;;28.90;27.40;;;;;;;0.13;100.00;103453.69;4994168;28;20438;-49
2023/01/22 06:17:04;;;;;;;27.50;26.30;;;;;;;0.15;100.00;103459.75;4994409;28;20450;-47
2023/01/22 06:19:32;;;;;;;27.80;26.50;;;;;;;0.13;100.00;103446.66;4994455;28;20438;-46
2023/01/22 06:22:01;;;;;;;28.23;26.83;;;;;;;0.07;100.00;103454.78;4994166;28;20430;-45
2023/01/22 06:24:29;;;;;;;27.47;26.00;;;;;;;0.08;100.00;103469.63;4993585;28;20433;-44
2023/01/22 06:26:57;;;;;;;27.30;26.10;;;;;;;0.02;100.00;103451.50;4994218;28;20481;-47
2023/01/22 06:29:25;;;;;;;27.50;26.13;;;;;;;0.00;100.00;103446.31;4994629;28;20474;-46
2023/01/22 06:31:52;;;;;;;29.37;27.87;;;;;;;0.01;100.00;103444.56;4994076;28;20485;-44
2023/01/22 06:34:20;;;;;;;29.17;27.80;;;;;;;0.06;100.00;103447.00;4993384;28;20472;-44
2023/01/22 06:36:48;;;;;;;29.60;27.90;;;;;;;0.02;100.00;103445.41;4993729;28;20456;-44
2023/01/22 06:39:17;;;;;;;27.70;26.40;;;;;;;-0.01;100.00;103435.91;4993539;28;20445;-46
2023/01/22 06:41:46;;;;;;;28.47;27.27;;;;;;;-0.06;100.00;103443.94;4994167;28;21078;-44
2023/01/22 06:44:15;;;;;;;27.80;26.50;;;;;;;-0.09;100.00;103458.97;4993337;28;21038;-44
2023/01/22 06:46:42;;;;;;;28.80;27.60;;;;;;;-0.14;100.00;103445.16;4993790;28;20458;-46
2023/01/22 06:49:11;;;;;;;28.07;26.87;;;;;;;-0.17;100.00;103455.78;4994043;28;20844;-45
2023/01/22 06:51:39;;;;;;;28.17;26.87;;;;;;;-0.13;100.00;103475.75;4993778;28;20426;-44
2023/01/22 06:54:07;;;;;;;27.83;26.53;;;;;;;-0.17;100.00;103466.28;4992727;28;20466;-44
2023/01/22 06:56:36;;;;;;;26.77;25.67;;;;;;;-0.22;100.00;103461.22;4993738;28;20520;-44
2023/01/22 06:59:04;;;;;;;27.47;26.27;;;;;;;-0.20;100.00;103474.25;4993944;28;20462;-44
2023/01/22 07:01:31;;;;;;;27.90;26.40;;;;;;;-0.22;100.00;103457.75;4993416;28;20474;-43
2023/01/22 07:03:59;;;;;;;28.40;27.10;;;;;;;-0.16;100.00;103465.38;4993140;28;20461;-44
2023/01/22 07:06:27;;;;;;;28.37;26.97;;;;;;;-0.13;100.00;103467.88;4993229;28;20461;-46
2023/01/22 07:08:55;;;;;;;27.77;26.57;;;;;;;-0.16;100.00;103458.38;4993543;28;20520;-46
2023/01/22 07:11:23;;;;;;;28.60;27.30;;;;;;;-0.15;100.00;103464.47;4993595;28;20785;-45
2023/01/22 07:13:52;;;;;;;27.47;26.27;;;;;;;-0.17;100.00;103472.38;5005314;28;20926;-47
2023/01/22 07:16:20;;;;;;;28.20;27.00;;;;;;;-0.21;100.00;103469.94;5012959;28;20433;-47
2023/01/22 07:18:47;;;;;;;28.60;26.90;;;;;;;-0.20;100.00;103482.13;5013098;28;20846;-46
2023/01/22 07:21:15;;;;;;;30.00;28.50;;;;;;;-0.16;100.00;103497.69;5012479;28;20520;-43
2023/01/22 07:23:43;;;;;;;29.03;27.77;;;;;;;-0.15;100.00;103490.69;5012151;28;20504;-45
2023/01/22 07:26:10;;;;;;;28.83;27.50;;;;;;;-0.12;100.00;103490.56;5012569;28;20437;-48
2023/01/22 07:28:39;;;;;;;28.47;27.17;;;;;;;-0.13;100.00;103494.97;5012843;28;20433;-44
2023/01/22 07:31:10;;;;;;;28.07;26.70;;;;;;;-0.11;100.00;103498.38;5013035;28;20970;-43
2023/01/22 07:33:38;;;;;;;28.27;26.77;;;;;;;-0.19;100.00;103515.31;5012082;28;20468;-44
2023/01/22 07:36:07;;;;;;;27.20;26.00;;;;;;;-0.19;100.00;103500.44;5012220;28;20433;-43
2023/01/22 07:38:34;;;;;;;27.47;25.83;;;;;;;-0.20;100.00;103508.34;5002366;28;20435;-45
2023/01/22 07:41:03;;;;;;;28.60;27.13;;;;;;;-0.16;100.00;103500.31;4992901;28;20465;-44
2023/01/22 07:43:48;;;;;;;28.77;27.40;;;;;;;-0.13;100.00;103499.34;4990992;28;20476;-46
2023/01/22 07:46:17;;;;;;;27.23;25.90;;;;;;;-0.18;100.00;103501.31;4992461;28;20438;-45
2023/01/22 07:48:45;;;;;;;27.93;26.60;;;;;;;-0.15;100.00;103507.25;4992273;28;20445;-45
2023/01/22 07:51:13;;;;;;;28.00;26.70;;;;;;;-0.11;100.00;103513.25;4992492;28;20436;-44
2023/01/22 07:53:41;;;;;;;27.57;26.30;;;;;;;-0.10;100.00;103515.81;4992221;28;20470;-44
2023/01/22 07:56:09;;;;;;;31.10;29.50;;;;;;;-0.11;100.00;103516.72;4992509;28;20441;-46
2023/01/22 07:58:38;;;;;;;27.20;25.90;;;;;;;-0.10;100.00;103520.22;4992474;28;20433;-44
2023/01/22 08:01:06;;;;;;;27.17;25.87;;;;;;;-0.09;100.00;103538.50;4992639;28;20474;-45
2023/01/22 08:03:36;;;;;;;27.03;25.73;;;;;;;-0.11;100.00;103531.59;4992378;28;20465;-47
2023/01/22 08:06:08;;;;;;;26.23;24.93;;;;;;;-0.10;100.00;103530.69;4992099;28;20438;-46
2023/01/22 08:08:36;;;;;;;26.33;25.13;;;;;;;-0.08;100.00;103534.09;4992435;28;20430;-44
2023/01/22 08:11:04;;;;;;;27.87;26.53;;;;;;;-0.06;100.00;103543.63;4992318;28;20442;-44
2023/01/22 08:13:32;;;;;;;26.80;25.63;;;;;;;-0.05;100.00;103550.59;4992009;28;20458;-46
2023/01/22 08:15:59;;;;;;;27.57;26.20;;;;;;;-0.08;100.00;103540.22;4992272;28;20936;-43
2023/01/22 08:18:27;;;;;;;27.83;26.53;;;;;;;-0.04;100.00;103549.69;4992516;28;20806;-44
2023/01/22 08:20:59;;;;;;;27.20;25.83;;;;;;;0.00;100.00;103547.81;4992035;28;20474;-44
2023/01/22 08:23:27;;;;;;;28.07;26.57;;;;;;;0.00;100.00;103559.13;4991884;28;20840;-43
2023/01/22 08:25:58;;;;;;;27.60;26.20;;;;;;;0.00;100.00;103553.88;4992535;28;20437;-44
2023/01/22 08:28:26;;;;;;;27.23;25.93;;;;;;;-0.03;100.00;103566.28;4992622;28;20462;-44
2023/01/22 08:30:58;;;;;;;26.30;25.10;;;;;;;-0.02;100.00;103565.34;4992516;28;20487;-44
2023/01/22 08:33:26;;;;;;;26.47;25.20;;;;;;;-0.04;100.00;103556.69;4992122;28;20466;-43
2023/01/22 08:35:55;;;;;;;27.20;25.93;;;;;;;-0.02;100.00;103549.59;4991591;28;20434;-44
2023/01/22 08:38:23;;;;;;;25.87;24.57;;;;;;;-0.02;100.00;103553.09;4992048;28;20461;-43
2023/01/22 08:40:51;;;;;;;26.37;25.27;;;;;;;0.02;100.00;103553.81;4992256;28;20422;-44
2023/01/22 08:43:19;;;;;;;28.33;26.93;;;;;;;0.08;100.00;103558.84;4991969;28;20469;-47
2023/01/22 08:45:48;;;;;;;29.50;27.80;;;;;;;0.03;100.00;103570.44;4992199;28;20438;-46
2023/01/22 08:48:16;;;;;;;28.23;26.83;;;;;;;0.08;100.00;103555.34;4992295;28;20462;-43
2023/01/22 08:50:44;;;;;;;27.03;25.73;;;;;;;0.13;100.00;103559.50;4991742;28;20430;-43
2023/01/22 08:53:13;;;;;;;28.87;27.60;;;;;;;0.11;100.00;103563.97;4991890;28;20953;-44
2023/01/22 08:55:40;;;;;;;28.10;26.57;;;;;;;0.14;100.00;103566.47;4992069;28;20529;-43
2023/01/22 08:58:09;;;;;;;28.03;26.53;;;;;;;0.17;100.00;103565.50;4992317;28;20508;-44
2023/01/22 09:00:37;;;;;;;29.43;27.83;;;;;;;0.11;100.00;103569.22;4993290;28;20994;-45
2023/01/22 09:03:04;;;;;;;29.00;27.53;;;;;;;0.21;100.00;103565.28;4995429;28;20473;-44
2023/01/22 09:05:32;;;;;;;27.90;26.50;;;;;;;0.23;100.00;103566.09;4995282;28;20947;-45
2023/01/22 09:08:00;;;;;;;26.73;25.53;;;;;;;0.26;100.00;103558.09;4996053;28;20454;-43
2023/01/22 09:10:29;;;;;;;27.63;26.13;;;;;;;0.31;100.00;103560.53;4995772;28;20456;-48
2023/01/22 09:12:58;;;;;;;26.50;25.30;;;;;;;0.32;100.00;103542.13;4995452;28;20855;-46
2023/01/22 09:15:26;;;;;;;25.90;24.70;;;;;;;0.35;100.00;103560.38;4995585;28;20799;-50
2023/01/22 09:17:54;;;;;;;25.70;24.50;;;;;;;0.35;100.00;103568.25;4995439;28;20460;-47
2023/01/22 09:20:22;;;;;;;27.90;26.60;;;;;;;0.37;100.00;103560.28;4995623;28;20462;-45
2023/01/22 09:22:49;;;;;;;26.17;24.87;;;;;;;0.37;100.00;103553.28;4994968;28;20465;-49
2023/01/22 09:25:17;;;;;;;27.77;26.37;;;;;;;0.36;100.00;103551.53;4995496;28;20429;-43
2023/01/22 09:27:47;;;;;;;27.07;25.77;;;;;;;0.41;100.00;103549.59;4995572;28;20459;-46
2023/01/22 09:30:15;;;;;;;28.13;26.63;;;;;;;0.50;100.00;103543.97;4995471;28;20487;-44
2023/01/22 09:32:43;;;;;;;26.30;25.00;;;;;;;0.42;100.00;103540.78;4995331;28;20461;-44
2023/01/22 09:35:10;;;;;;;26.77;25.30;;;;;;;0.43;100.00;103552.16;5001290;28;20493;-44
2023/01/22 09:37:39;;;;;;;26.03;24.70;;;;;;;0.48;100.00;103540.53;5001767;28;20468;-46
2023/01/22 09:40:12;;;;;;;27.37;25.97;;;;;;;0.46;100.00;103537.13;4995402;28;20863;-44
2023/01/22 09:42:41;;;;;;;26.17;24.87;;;;;;;0.51;100.00;103548.28;4993478;28;20507;-43
2023/01/22 09:45:13;;;;;;;27.43;25.67;;;;;;;0.51;100.00;103548.28;4994395;28;20434;-46
2023/01/22 09:47:46;;;;;;;25.60;24.50;;;;;;;0.47;100.00;103541.47;5001354;28;20456;-49
2023/01/22 09:50:20;;;;;;;26.43;25.03;;;;;;;0.43;100.00;103537.25;5002364;28;20936;-47
2023/01/22 09:52:50;;;;;;;26.90;25.50;;;;;;;0.46;100.00;103542.38;4997622;28;20475;-45
2023/01/22 09:55:21;;;;;;;26.83;24.80;;;;;;;0.42;100.00;103540.78;4995379;28;20464;-46
2023/01/22 09:57:51;;;;;;;26.57;24.93;;;;;;;0.53;100.00;103543.00;4991169;28;20499;-45
2023/01/22 10:00:24;;;;;;;27.27;25.87;;;;;;;0.62;100.00;103541.75;4974409;28;20497;-46
2023/01/22 10:02:56;;;;;;;27.53;26.20;;;;;;;0.67;100.00;103532.75;4997646;28;20515;-46
2023/01/22 10:05:30;;;;;;;27.37;26.07;;;;;;;0.74;100.00;103533.34;4994834;28;20438;-44
2023/01/22 10:08:04;;;;;;;25.80;24.70;;;;;;;0.75;100.00;103537.69;4983344;28;20892;-43
2023/01/22 10:10:33;;;;;;;27.00;25.77;;;;;;;0.78;100.00;103529.66;4993182;28;20445;-45
2023/01/22 10:13:09;;;;;;;27.73;26.43;;;;;;;0.76;100.00;103516.63;4994521;28;20434;-46
2023/01/22 10:15:39;;;;;;;26.30;25.10;;;;;;;0.89;100.00;103525.69;5002909;28;20444;-43
2023/01/22 10:18:20;;;;;;;26.93;25.73;;;;;;;0.93;100.00;103521.97;4995055;28;20446;-44
2023/01/22 10:20:49;;;;;;;26.50;25.03;;;;;;;0.90;100.00;103511.59;4993352;28;20524;-44
2023/01/22 10:23:19;;;;;;;26.67;25.37;;;;;;;0.99;100.00;103511.19;5009020;28;20473;-43
2023/01/22 10:25:47;;;;;;;26.90;25.50;;;;;;;0.92;100.00;103514.19;5001929;28;20948;-43
2023/01/22 10:28:16;;;;;;;25.93;24.70;;;;;;;0.87;100.00;103503.84;5005765;28;20472;-47
2023/01/22 10:30:50;;;;;;;25.60;24.40;;;;;;;0.85;100.00;103502.22;4993096;28;20434;-45
2023/01/22 10:33:22;;;;;;;26.90;25.40;;;;;;;0.87;100.00;103495.13;4996762;28;20426;-46
2023/01/22 10:35:52;;;;;;;26.13;25.13;;;;;;;0.91;100.00;103504.59;5000977;28;20442;-44
2023/01/22 10:38:23;;;;;;;25.63;24.43;;;;;;;1.06;100.00;103502.13;4995205;28;20516;-50
2023/01/22 10:40:56;;;;;;;26.03;25.00;;;;;;;0.98;100.00;103501.63;4984970;28;20461;-44
2023/01/22 10:43:31;;;;;;;26.50;24.87;;;;;;;1.08;100.00;103509.94;4992787;28;20466;-50
2023/01/22 10:46:05;;;;;;;25.57;24.40;;;;;;;1.14;100.00;103504.41;4993125;28;20445;-46
2023/01/22 10:48:33;;;;;;;25.23;24.00;;;;;;;1.13;100.00;103507.97;5006287;28;20434;-44
2023/01/22 10:51:13;;;;;;;25.80;24.40;;;;;;;1.23;100.00;103498.75;4992709;28;20465;-46
2023/01/22 10:53:47;;;;;;;26.73;25.43;;;;;;;1.28;100.00;103509.94;4993791;28;20928;-43
2023/01/22 10:56:26;;;;;;;25.87;24.50;;;;;;;1.24;100.00;103499.59;5005971;28;20437;-49
2023/01/22 10:58:55;;;;;;;27.53;26.23;;;;;;;1.37;100.00;103512.13;5001598;28;20442;-46
2023/01/22 11:01:32;;;;;;;27.33;25.87;;;;;;;1.47;100.00;103512.53;4988485;28;20802;-45
2023/01/22 11:04:10;;;;;;;26.90;25.50;;;;;;;1.43;100.00;103513.63;4996833;28;20462;-45
2023/01/22 11:06:42;;;;;;;28.43;26.57;;;;;;;1.43;100.00;103509.22;5002565;28;20501;-43
2023/01/22 11:09:16;;;;;;;26.20;25.00;;;;;;;1.50;100.00;103508.00;4997357;28;20446;-44
2023/01/22 11:11:47;;;;;;;26.50;25.17;;;;;;;1.43;100.00;103500.47;4994380;28;21126;-45
2023/01/22 11:14:20;;;;;;;26.73;25.53;;;;;;;1.52;100.00;103495.63;4999682;28;20441;-49
2023/01/22 11:16:52;;;;;;;26.67;25.30;;;;;;;1.56;100.00;103499.84;4987357;28;20465;-46
2023/01/22 11:19:24;;;;;;;27.60;26.20;;;;;;;1.57;100.00;103509.44;4994049;28;20433;-45
2023/01/22 11:22:11;;;;;;;26.00;24.90;;;;;;;1.60;100.00;103506.66;4999662;28;20464;-44
2023/01/22 11:24:45;;;;;;;26.33;25.10;;;;;;;1.64;100.00;103505.56;4996136;28;20473;-44
2023/01/22 11:27:52;;;;;;;26.53;24.83;;;;;;;1.62;100.00;103504.81;4985550;28;20463;-46